Time;durP1;ratioP1;P1;durP2;ratioP2;P2;SDS_P1;SDS_P2;PMS_P1;PMS_P2;Temp;Humidity;BMP_temperature;BMP_pressure;BME280_temperature;BME280_humidity;BME280_pressure;Samples;Min_cycle;Max_cycle;Signal;HPM_P1;HPM_P2
2024/04/07 00:02:24;;;;;;;2.08;1.40;;;;;;;15.50;100.00;97162.44;5001634;28;20402;-79
2024/04/07 00:04:50;;;;;;;2.42;1.42;;;;;;;15.48;100.00;97151.28;5001573;28;20405;-80
2024/04/07 00:07:16;;;;;;;4.55;1.70;;;;;;;15.48;100.00;97147.81;5001965;28;20411;-81
2024/04/07 00:09:42;;;;;;;4.10;1.58;;;;;;;15.48;100.00;97150.47;5002412;28;20422;-80
2024/04/07 00:12:09;;;;;;;5.13;2.00;;;;;;;15.44;100.00;97141.44;5003808;28;20406;-79
2024/04/07 00:14:37;;;;;;;6.17;1.60;;;;;;;15.45;100.00;97141.16;5006486;28;20403;-80
2024/04/07 00:17:03;;;;;;;5.30;1.30;;;;;;;15.42;100.00;97146.28;5012503;28;20402;-79
2024/04/07 00:19:31;;;;;;;3.15;1.45;;;;;;;15.42;100.00;97141.72;5017684;28;20441;-78
2024/04/07 00:21:58;;;;;;;3.80;1.60;;;;;;;15.42;100.00;97139.06;5012057;28;20501;-79
2024/04/07 00:24:24;;;;;;;2.78;1.42;;;;;;;15.37;100.00;97131.13;5001580;28;20407;-79
2024/04/07 00:26:50;;;;;;;2.90;1.63;;;;;;;15.31;100.00;97126.97;5000512;28;20406;-81
2024/04/07 00:29:16;;;;;;;2.35;1.50;;;;;;;15.28;100.00;97127.53;4999704;28;20406;-81
2024/04/07 00:31:43;;;;;;;7.03;1.83;;;;;;;15.20;100.00;97122.03;4999379;28;20434;-80
2024/04/07 00:34:09;;;;;;;4.53;1.45;;;;;;;15.23;100.00;97122.25;4999787;28;20460;-80
2024/04/07 00:36:36;;;;;;;2.85;1.50;;;;;;;15.19;100.00;97121.22;5000217;28;20955;-80
2024/04/07 00:39:03;;;;;;;2.08;1.67;;;;;;;15.15;100.00;97130.09;4999214;28;20441;-80
2024/04/07 00:41:29;;;;;;;3.90;1.50;;;;;;;15.14;100.00;97133.84;4999998;28;20403;-80
2024/04/07 00:43:55;;;;;;;3.72;1.50;;;;;;;15.15;100.00;97135.44;4999856;28;20414;-80
2024/04/07 00:46:21;;;;;;;2.00;1.50;;;;;;;15.15;100.00;97138.09;4999898;28;20398;-80
2024/04/07 00:48:47;;;;;;;3.87;1.60;;;;;;;15.15;100.00;97130.91;5003898;28;20575;-79
2024/04/07 00:51:14;;;;;;;2.83;1.40;;;;;;;15.13;100.00;97124.25;4999577;28;20480;-80
2024/04/07 00:53:41;;;;;;;2.85;1.58;;;;;;;15.13;100.00;97124.25;5002156;28;20415;-80
2024/04/07 00:56:08;;;;;;;4.38;1.60;;;;;;;15.09;100.00;97126.72;5000463;28;20402;-80
2024/04/07 00:58:34;;;;;;;3.22;1.40;;;;;;;15.00;100.00;97131.88;4999630;28;20399;-80
2024/04/07 01:01:00;;;;;;;3.83;1.60;;;;;;;14.95;100.00;97121.28;4999614;28;20497;-79
2024/04/07 01:03:26;;;;;;;2.00;1.40;;;;;;;14.93;100.00;97118.13;5000154;28;20413;-80
2024/04/07 01:05:52;;;;;;;4.43;1.70;;;;;;;14.89;100.00;97116.28;4999434;28;20403;-79
2024/04/07 01:08:19;;;;;;;2.53;1.52;;;;;;;14.87;100.00;97121.13;4999514;28;20403;-79
2024/04/07 01:10:50;;;;;;;4.50;1.80;;;;;;;14.85;100.00;97117.94;4999029;28;20492;-79
2024/04/07 01:13:16;;;;;;;2.63;1.50;;;;;;;14.84;100.00;97119.00;4999083;28;20410;-79
2024/04/07 01:15:43;;;;;;;2.33;1.40;;;;;;;14.82;100.00;97124.63;4999317;28;20481;-78
2024/04/07 01:18:09;;;;;;;4.28;1.52;;;;;;;14.80;100.00;97121.47;4998835;28;20402;-80
2024/04/07 01:20:35;;;;;;;2.55;1.70;;;;;;;14.79;100.00;97127.06;4999169;28;20899;-79
2024/04/07 01:23:01;;;;;;;4.22;1.60;;;;;;;14.76;100.00;97131.09;4999407;28;20399;-79
2024/04/07 01:25:29;;;;;;;5.28;1.70;;;;;;;14.75;100.00;97131.38;4999441;28;20399;-79
2024/04/07 01:27:56;;;;;;;3.22;1.58;;;;;;;14.75;100.00;97132.16;4999452;28;20402;-79
2024/04/07 01:30:22;;;;;;;2.88;1.70;;;;;;;14.70;100.00;97138.34;4999210;28;20470;-79
2024/04/07 01:32:49;;;;;;;2.72;1.63;;;;;;;14.67;100.00;97138.13;4998719;28;20461;-80
2024/04/07 01:35:15;;;;;;;2.67;1.45;;;;;;;14.65;100.00;97140.28;5014139;28;20412;-81
2024/04/07 01:37:41;;;;;;;5.22;1.65;;;;;;;14.61;100.00;97141.91;5032505;28;20404;-81
2024/04/07 01:40:11;;;;;;;2.28;1.33;;;;;;;14.58;100.00;97148.63;5032674;28;20428;-81
2024/04/07 01:42:40;;;;;;;1.88;1.50;;;;;;;14.61;100.00;97145.38;5033271;28;20393;-80
2024/04/07 01:45:07;;;;;;;2.58;1.40;;;;;;;14.62;100.00;97144.31;5032933;28;20404;-81
2024/04/07 01:47:34;;;;;;;2.38;1.63;;;;;;;14.64;100.00;97138.69;5032388;28;20393;-81
2024/04/07 01:50:00;;;;;;;1.95;1.40;;;;;;;14.70;100.00;97145.56;5032437;28;20488;-79
2024/04/07 01:52:27;;;;;;;6.20;1.90;;;;;;;14.72;100.00;97143.41;5032550;28;20412;-80
2024/04/07 01:54:53;;;;;;;2.17;1.30;;;;;;;14.77;100.00;97134.56;5032589;28;20389;-81
2024/04/07 01:57:20;;;;;;;4.05;1.60;;;;;;;14.85;100.00;97148.06;5032511;28;20730;-81
2024/04/07 01:59:47;;;;;;;2.45;1.35;;;;;;;14.86;100.00;97128.31;5030876;28;20400;-80
2024/04/07 02:02:15;;;;;;;3.90;2.10;;;;;;;14.93;100.00;97134.09;5031040;28;20377;-81
2024/04/07 02:04:41;;;;;;;2.70;1.38;;;;;;;14.98;100.00;97122.56;5033066;28;20439;-81
2024/04/07 02:07:07;;;;;;;3.17;1.50;;;;;;;15.06;100.00;97124.59;5032796;28;20435;-81
2024/04/07 02:09:34;;;;;;;2.22;1.50;;;;;;;15.07;100.00;97126.19;5032068;28;20425;-81
2024/04/07 02:12:00;;;;;;;4.13;1.33;;;;;;;15.11;100.00;97120.00;5032179;28;20401;-80
2024/04/07 02:14:26;;;;;;;1.97;1.40;;;;;;;15.23;100.00;97118.81;5032839;28;20432;-81
2024/04/07 02:16:53;;;;;;;2.88;1.40;;;;;;;15.34;100.00;97120.25;5032704;28;20392;-80
2024/04/07 02:19:20;;;;;;;1.50;1.30;;;;;;;15.42;100.00;97115.06;5033116;28;20890;-81
2024/04/07 02:21:46;;;;;;;3.78;1.50;;;;;;;15.51;100.00;97112.53;5032450;28;20431;-82
2024/04/07 02:24:12;;;;;;;3.03;1.33;;;;;;;15.54;100.00;97119.22;5032647;28;20405;-82
2024/04/07 02:26:38;;;;;;;4.17;1.40;;;;;;;15.57;100.00;97119.41;5032566;28;20408;-82
2024/04/07 02:29:04;;;;;;;3.40;1.58;;;;;;;15.74;100.00;97109.03;5032381;28;20431;-81
2024/04/07 02:31:31;;;;;;;1.75;1.20;;;;;;;15.86;100.00;97113.91;5031728;28;20421;-81
2024/04/07 02:33:58;;;;;;;2.37;1.27;;;;;;;15.95;100.00;97109.47;5032192;28;20393;-81
2024/04/07 02:36:25;;;;;;;4.38;1.35;;;;;;;16.16;100.00;97115.31;4993188;28;20407;-81
2024/04/07 02:38:52;;;;;;;3.90;1.60;;;;;;;16.27;100.00;97109.47;4993211;28;20435;-81
2024/04/07 02:41:18;;;;;;;2.05;1.23;;;;;;;16.44;100.00;97106.25;4997438;28;20420;-81
2024/04/07 02:43:44;;;;;;;3.20;1.65;;;;;;;16.64;100.00;97107.78;4996990;28;20416;-81
2024/04/07 02:48:55;;;;;;;3.03;1.43;;;;;;;16.69;100.00;97120.25;4978471;28;20432;-80
2024/04/07 02:51:22;;;;;;;3.35;1.27;;;;;;;16.70;100.00;97119.94;4978285;28;20412;-80
2024/04/07 02:53:49;;;;;;;2.47;1.30;;;;;;;16.77;100.00;97122.22;4978080;28;20463;-81
2024/04/07 02:56:15;;;;;;;2.58;1.30;;;;;;;16.80;100.00;97121.63;4977368;28;20929;-80
2024/04/07 02:58:42;;;;;;;1.40;1.23;;;;;;;16.73;100.00;97124.72;4979627;28;20414;-80
2024/04/07 03:01:08;;;;;;;1.45;0.98;;;;;;;16.78;100.00;97129.94;4981139;28;20440;-80
2024/04/07 03:03:34;;;;;;;3.22;1.33;;;;;;;16.85;100.00;97130.34;4978778;28;20408;-80
2024/04/07 03:06:03;;;;;;;1.50;1.10;;;;;;;16.94;100.00;97130.44;4978087;28;20405;-80
2024/04/07 03:08:31;;;;;;;2.70;1.10;;;;;;;16.95;100.00;97132.03;4977626;28;20805;-80
2024/04/07 03:10:57;;;;;;;3.28;1.10;;;;;;;16.91;100.00;97137.19;4978638;28;20456;-81
2024/04/07 03:13:23;;;;;;;2.15;1.23;;;;;;;16.86;100.00;97142.63;4983694;28;20408;-78
2024/04/07 03:15:50;;;;;;;2.58;1.55;;;;;;;16.85;100.00;97141.03;4981557;28;20495;-77
2024/04/07 03:18:16;;;;;;;2.00;1.20;;;;;;;16.77;100.00;97168.44;4982335;28;20435;-77
2024/04/07 03:20:42;;;;;;;1.77;1.08;;;;;;;16.68;100.00;97158.75;4982033;28;20500;-78
2024/04/07 03:23:08;;;;;;;1.98;1.20;;;;;;;16.66;100.00;97168.94;4982192;28;20572;-78
2024/04/07 03:25:36;;;;;;;3.92;1.30;;;;;;;16.57;100.00;97174.94;4982020;28;20404;-80
2024/04/07 03:28:02;;;;;;;3.67;1.30;;;;;;;16.55;100.00;97182.44;4982505;28;20420;-79
2024/04/07 03:30:29;;;;;;;1.70;1.30;;;;;;;16.49;100.00;97183.63;4981583;28;20420;-80
2024/04/07 03:32:55;;;;;;;2.37;1.70;;;;;;;16.43;100.00;97190.16;4981482;28;20419;-78
2024/04/07 03:35:21;;;;;;;3.33;1.30;;;;;;;16.39;100.00;97199.06;5003741;28;20412;-78
2024/04/07 03:37:47;;;;;;;3.53;1.75;;;;;;;16.29;100.00;97197.34;5019788;28;20405;-77
2024/04/07 03:40:14;;;;;;;2.60;1.48;;;;;;;16.20;100.00;97210.56;5021057;28;20802;-80
2024/04/07 03:42:41;;;;;;;3.15;1.50;;;;;;;16.19;100.00;97213.50;5021103;28;20424;-79
2024/04/07 03:45:09;;;;;;;2.50;1.30;;;;;;;16.18;100.00;97211.91;5020731;28;20407;-82
2024/04/07 03:47:35;;;;;;;2.67;1.25;;;;;;;16.17;100.00;97218.34;5020787;28;20507;-80
2024/04/07 03:50:02;;;;;;;2.47;1.30;;;;;;;16.10;100.00;97221.38;5021030;28;20427;-80
2024/04/07 03:52:28;;;;;;;3.72;1.30;;;;;;;16.10;100.00;97216.03;5020405;28;20834;-79
2024/04/07 03:54:54;;;;;;;4.10;1.40;;;;;;;15.99;100.00;97227.19;5033054;28;20470;-82
2024/04/07 03:57:20;;;;;;;3.22;1.60;;;;;;;16.02;100.00;97230.03;5032815;28;20395;-81
2024/04/07 03:59:48;;;;;;;3.38;1.70;;;;;;;16.03;100.00;97230.84;5020437;28;20487;-83
2024/04/07 04:02:21;;;;;;;6.40;1.60;;;;;;;15.96;100.00;97238.41;5020388;28;20394;-81
2024/04/07 04:04:55;;;;;;;2.60;1.40;;;;;;;16.01;100.00;97243.72;5016771;28;20418;-82
2024/04/07 04:07:21;;;;;;;4.65;1.50;;;;;;;15.95;100.00;97248.31;5015274;28;20399;-81
2024/04/07 04:09:50;;;;;;;6.63;1.35;;;;;;;15.99;100.00;97257.34;5015241;28;20426;-81
2024/04/07 04:12:16;;;;;;;2.28;1.30;;;;;;;16.03;100.00;97262.88;5014673;28;20433;-80
2024/04/07 04:14:42;;;;;;;4.25;1.60;;;;;;;15.95;100.00;97267.00;5014705;28;20403;-82
2024/04/07 04:17:10;;;;;;;8.07;2.10;;;;;;;15.90;100.00;97268.94;5015205;28;20403;-81
2024/04/07 04:19:36;;;;;;;2.08;1.30;;;;;;;15.92;100.00;97267.59;5013857;28;20477;-82
2024/04/07 04:22:02;;;;;;;4.28;1.35;;;;;;;15.79;100.00;97274.41;5014184;28;20410;-80
2024/04/07 04:24:28;;;;;;;2.22;1.60;;;;;;;15.79;100.00;97279.75;5013973;28;20716;-81
2024/04/07 04:26:55;;;;;;;3.10;1.55;;;;;;;15.77;100.00;97276.59;5013838;28;20419;-80
2024/04/07 04:29:21;;;;;;;3.25;1.40;;;;;;;15.75;100.00;97283.28;5014045;28;20808;-82
2024/04/07 04:31:47;;;;;;;2.05;1.50;;;;;;;15.81;100.00;97290.13;5013771;28;20434;-82
2024/04/07 04:34:15;;;;;;;2.95;1.58;;;;;;;15.76;100.00;97288.34;5013833;28;20422;-80
2024/04/07 04:36:41;;;;;;;4.57;1.98;;;;;;;15.71;100.00;97287.63;5013642;28;20410;-80
2024/04/07 04:39:07;;;;;;;4.50;1.58;;;;;;;15.67;100.00;97290.06;5014263;28;20445;-78
2024/04/07 04:41:34;;;;;;;4.88;1.70;;;;;;;15.66;100.00;97290.31;5013611;28;20407;-80
2024/04/07 04:44:00;;;;;;;3.42;1.40;;;;;;;15.66;100.00;97299.13;5014036;28;20422;-82
2024/04/07 04:46:27;;;;;;;5.13;1.73;;;;;;;15.69;100.00;97300.44;5013837;28;20413;-81
2024/04/07 04:48:53;;;;;;;2.88;1.77;;;;;;;15.61;100.00;97301.88;5014794;28;20418;-81
2024/04/07 04:51:20;;;;;;;3.17;1.58;;;;;;;15.64;100.00;97298.63;5014641;28;20437;-81
2024/04/07 04:53:46;;;;;;;6.03;1.67;;;;;;;15.64;100.00;97303.16;5014530;28;20442;-82
2024/04/07 04:56:13;;;;;;;4.60;1.40;;;;;;;15.58;100.00;97307.75;5014360;28;20398;-81
2024/04/07 04:58:39;;;;;;;3.85;1.80;;;;;;;15.48;100.00;97315.88;5014442;28;20465;-81
2024/04/07 05:01:12;;;;;;;3.33;1.50;;;;;;;15.45;100.00;97314.56;5014600;28;20403;-81
2024/04/07 05:03:39;;;;;;;2.90;1.40;;;;;;;15.30;100.00;97322.72;5013750;28;20395;-82
2024/04/07 05:06:08;;;;;;;1.50;1.23;;;;;;;15.19;100.00;97334.53;5004530;28;20405;-82
2024/04/07 05:08:36;;;;;;;2.63;1.70;;;;;;;15.06;100.00;97335.22;4998325;28;20410;-81
2024/04/07 05:11:03;;;;;;;2.70;1.40;;;;;;;15.01;100.00;97341.41;5001732;28;20453;-79
2024/04/07 05:13:30;;;;;;;5.95;1.58;;;;;;;14.87;100.00;97345.78;4999180;28;20438;-79
2024/04/07 05:15:56;;;;;;;6.37;1.97;;;;;;;14.75;100.00;97350.66;4998688;28;20482;-81
2024/04/07 05:18:22;;;;;;;2.60;1.30;;;;;;;14.77;100.00;97351.19;4999944;28;20410;-77
2024/04/07 05:20:49;;;;;;;3.90;1.57;;;;;;;14.62;100.00;97356.63;4999999;28;20745;-79
2024/04/07 05:23:15;;;;;;;3.47;1.80;;;;;;;14.60;100.00;97372.09;5000004;28;20409;-80
2024/04/07 05:25:42;;;;;;;2.72;1.63;;;;;;;14.54;100.00;97375.84;4999232;28;20406;-79
2024/04/07 05:28:09;;;;;;;3.55;1.70;;;;;;;14.47;100.00;97368.19;4999163;28;20398;-79
2024/04/07 05:30:36;;;;;;;4.55;1.52;;;;;;;14.44;100.00;97367.91;5000082;28;20456;-80
2024/04/07 05:33:02;;;;;;;4.88;1.80;;;;;;;14.46;100.00;97371.09;4998070;28;20402;-79
2024/04/07 05:35:28;;;;;;;3.45;1.70;;;;;;;14.39;100.00;97375.94;5012103;28;20882;-78
2024/04/07 05:37:54;;;;;;;4.68;2.03;;;;;;;14.31;100.00;97382.63;5019352;28;20401;-77
2024/04/07 05:40:21;;;;;;;4.78;1.60;;;;;;;14.34;100.00;97385.53;5019213;28;20425;-79
2024/04/07 05:42:48;;;;;;;4.82;1.67;;;;;;;14.28;100.00;97381.28;5016342;28;20885;-81
2024/04/07 05:45:15;;;;;;;5.60;2.00;;;;;;;14.32;100.00;97387.69;5016806;28;20396;-80
2024/04/07 05:47:41;;;;;;;3.58;2.10;;;;;;;14.37;100.00;97394.81;5015915;28;20409;-78
2024/04/07 05:50:07;;;;;;;3.92;1.90;;;;;;;14.38;100.00;97392.97;5015830;28;20427;-80
2024/04/07 05:52:33;;;;;;;1.58;1.38;;;;;;;14.38;100.00;97392.97;5016423;28;20436;-81
2024/04/07 05:55:02;;;;;;;4.75;1.42;;;;;;;14.41;100.00;97395.13;5017766;28;20455;-80
2024/04/07 05:57:28;;;;;;;4.63;1.70;;;;;;;14.51;100.00;97395.84;4979219;28;20440;-78
2024/04/07 05:59:56;;;;;;;6.22;2.10;;;;;;;14.53;100.00;97404.34;4987477;28;20452;-81
2024/04/07 06:02:22;;;;;;;2.75;1.27;;;;;;;14.57;100.00;97409.94;4998173;28;20485;-81
2024/04/07 06:04:51;;;;;;;1.80;1.30;;;;;;;14.63;100.00;97414.16;4997421;28;20422;-80
2024/04/07 06:07:17;;;;;;;3.40;1.60;;;;;;;14.70;100.00;97414.66;4997417;28;20470;-81
2024/04/07 06:09:46;;;;;;;5.13;1.50;;;;;;;14.75;100.00;97416.47;4998227;28;20402;-81
2024/04/07 06:12:12;;;;;;;4.10;1.80;;;;;;;14.78;100.00;97429.25;4997655;28;20429;-81
2024/04/07 06:14:39;;;;;;;3.00;1.38;;;;;;;14.80;100.00;97437.78;4997600;28;20398;-77
2024/04/07 06:17:06;;;;;;;3.35;1.60;;;;;;;14.85;100.00;97433.22;4995879;28;20518;-79
2024/04/07 06:19:32;;;;;;;2.55;1.70;;;;;;;14.90;100.00;97438.50;4995581;28;20453;-78
2024/04/07 06:21:58;;;;;;;3.40;1.40;;;;;;;14.95;100.00;97441.16;4996130;28;20430;-79
2024/04/07 06:24:25;;;;;;;3.07;1.63;;;;;;;14.93;100.00;97439.81;4997000;28;20409;-79
2024/04/07 06:26:51;;;;;;;3.80;1.70;;;;;;;14.98;100.00;97455.75;4995329;28;20402;-79
2024/04/07 06:29:17;;;;;;;3.13;1.38;;;;;;;15.00;100.00;97458.97;4995232;28;20899;-78
2024/04/07 06:31:43;;;;;;;6.57;2.20;;;;;;;14.91;100.00;97441.97;4997526;28;20958;-79
2024/04/07 06:34:10;;;;;;;12.98;1.88;;;;;;;14.98;100.00;97440.56;4997376;28;20399;-79
2024/04/07 06:36:37;;;;;;;2.75;1.90;;;;;;;14.95;100.00;97446.47;4995822;28;20879;-79
2024/04/07 06:39:03;;;;;;;4.07;1.70;;;;;;;15.08;100.00;97448.50;4999841;28;20871;-80
2024/04/07 06:41:29;;;;;;;6.40;1.70;;;;;;;15.13;100.00;97465.53;4998851;28;20414;-80
2024/04/07 06:43:56;;;;;;;1.80;1.40;;;;;;;15.19;100.00;97461.75;4998827;28;20402;-78
2024/04/07 06:46:22;;;;;;;5.30;1.48;;;;;;;15.17;100.00;97462.03;4995850;28;20950;-77
2024/04/07 06:48:48;;;;;;;4.60;1.50;;;;;;;15.26;100.00;97464.91;4994941;28;20493;-78
2024/04/07 06:51:16;;;;;;;3.58;1.70;;;;;;;15.37;100.00;97475.22;4995121;28;20945;-76
2024/04/07 06:53:44;;;;;;;4.00;1.50;;;;;;;15.49;100.00;97485.50;4995849;28;20399;-77
2024/04/07 06:56:10;;;;;;;3.22;1.23;;;;;;;15.59;100.00;97496.13;5003123;28;20418;-79
2024/04/07 06:58:36;;;;;;;2.10;1.35;;;;;;;15.70;100.00;97500.31;5004611;28;20395;-82
2024/04/07 07:01:02;;;;;;;5.00;1.90;;;;;;;15.84;100.00;97492.44;5005926;28;20446;-82
2024/04/07 07:03:28;;;;;;;4.72;1.58;;;;;;;15.97;100.00;97483.75;5008753;28;20771;-80
2024/04/07 07:05:55;;;;;;;1.95;1.20;;;;;;;16.15;100.00;97484.91;5007149;28;20429;-82
2024/04/07 07:08:22;;;;;;;2.22;1.20;;;;;;;16.32;100.00;97503.94;4999606;28;20468;-79
2024/04/07 07:10:59;;;;;;;4.32;1.40;;;;;;;16.48;100.00;97504.56;5000751;28;20419;-80
2024/04/07 07:13:25;;;;;;;1.58;1.17;;;;;;;16.62;100.00;97500.13;5003546;28;20407;-80
2024/04/07 07:15:51;;;;;;;3.20;1.10;;;;;;;16.73;100.00;97511.50;4999544;28;20410;-79
2024/04/07 07:18:18;;;;;;;3.17;1.42;;;;;;;16.91;100.00;97505.38;4997474;28;20574;-78
2024/04/07 07:20:44;;;;;;;4.75;2.30;;;;;;;16.99;100.00;97500.16;4998596;28;20474;-77
2024/04/07 07:23:10;;;;;;;5.97;1.80;;;;;;;17.21;100.00;97494.25;4997395;28;20406;-80
2024/04/07 07:25:39;;;;;;;3.85;1.33;;;;;;;17.29;100.00;97496.25;5002389;28;20492;-81
2024/04/07 07:28:06;;;;;;;2.90;1.10;;;;;;;17.40;100.00;97497.69;5010733;28;20894;-82
2024/04/07 07:30:32;;;;;;;3.30;1.30;;;;;;;17.50;100.00;97507.44;5009522;28;20457;-83
2024/04/07 07:32:58;;;;;;;1.70;1.08;;;;;;;17.59;100.00;97520.97;5005536;28;20772;-82
2024/04/07 07:35:24;;;;;;;1.63;1.10;;;;;;;17.65;100.00;97517.94;5004869;28;20433;-81
2024/04/07 07:37:51;;;;;;;2.50;1.20;;;;;;;17.75;100.00;97524.97;5011097;28;20470;-81
2024/04/07 07:40:18;;;;;;;2.20;1.23;;;;;;;17.82;100.00;97521.94;5009972;28;21260;-81
2024/04/07 07:42:46;;;;;;;2.28;1.27;;;;;;;17.91;100.00;97534.34;5010844;28;20400;-82
2024/04/07 07:45:12;;;;;;;1.73;1.30;;;;;;;17.98;100.00;97529.41;5008717;28;20899;-79
2024/04/07 07:47:38;;;;;;;3.83;1.60;;;;;;;18.10;100.00;97534.28;5004244;28;20417;-80
2024/04/07 07:50:06;;;;;;;3.95;1.60;;;;;;;18.13;100.00;97529.13;5003709;28;20422;-80
2024/04/07 07:52:32;;;;;;;2.70;1.40;;;;;;;18.26;100.00;97538.28;5003829;28;20399;-80
2024/04/07 07:54:58;;;;;;;3.25;1.88;;;;;;;18.43;100.00;97545.72;4997901;28;20419;-79
2024/04/07 07:57:25;;;;;;;2.72;1.30;;;;;;;18.57;100.00;97557.28;5012869;28;20404;-78
2024/04/07 07:59:53;;;;;;;3.10;1.73;;;;;;;18.67;100.00;97556.28;5007549;28;20399;-77
2024/04/07 08:02:19;;;;;;;3.57;1.40;;;;;;;18.76;100.00;97562.53;4998906;28;20783;-77
2024/04/07 08:04:45;;;;;;;1.98;1.00;;;;;;;18.85;100.00;97556.19;4999029;28;20835;-76
2024/04/07 08:07:11;;;;;;;2.83;1.08;;;;;;;18.94;100.00;97562.41;4994711;28;20483;-76
2024/04/07 08:09:37;;;;;;;2.47;1.00;;;;;;;19.07;100.00;97568.06;4994621;28;20413;-76
2024/04/07 08:12:04;;;;;;;1.02;0.90;;;;;;;19.20;100.00;97569.94;4989894;28;20453;-78
2024/04/07 08:14:30;;;;;;;1.38;0.88;;;;;;;19.33;100.00;97571.78;4989748;28;20405;-78
2024/04/07 08:16:58;;;;;;;2.78;1.27;;;;;;;19.40;100.00;97568.66;5000866;28;20424;-79
2024/04/07 08:19:24;;;;;;;3.60;1.30;;;;;;;19.46;100.00;97578.22;5006637;28;20523;-81
2024/04/07 08:21:50;;;;;;;3.30;1.20;;;;;;;19.54;100.00;97585.59;5003421;28;20406;-79
2024/04/07 08:24:17;;;;;;;5.28;1.70;;;;;;;19.62;100.00;97588.31;4998991;28;20453;-81
2024/04/07 08:26:43;;;;;;;2.70;1.10;;;;;;;19.67;100.00;97593.59;5000342;28;20871;-80
2024/04/07 08:29:09;;;;;;;6.20;1.67;;;;;;;19.69;100.00;97586.03;5003968;28;20433;-81
2024/04/07 08:31:36;;;;;;;6.97;1.50;;;;;;;19.76;100.00;97584.81;5004732;28;20418;-80
2024/04/07 08:34:03;;;;;;;9.25;1.65;;;;;;;19.69;100.00;97582.53;5004373;28;20402;-78
2024/04/07 08:36:29;;;;;;;2.58;1.17;;;;;;;19.74;100.00;97584.31;5005051;28;20406;-78
2024/04/07 08:38:56;;;;;;;5.03;1.20;;;;;;;19.77;100.00;97583.72;5004291;28;20895;-81
2024/04/07 08:41:22;;;;;;;2.23;1.20;;;;;;;19.83;100.00;97587.84;5015449;28;20417;-79
2024/04/07 08:43:49;;;;;;;3.55;1.35;;;;;;;19.92;100.00;97586.78;5007308;28;20406;-81
2024/04/07 08:46:16;;;;;;;4.53;1.23;;;;;;;19.96;100.00;97589.66;5007849;28;20413;-81
2024/04/07 08:48:50;;;;;;;5.20;1.33;;;;;;;20.00;100.00;97596.00;5009790;28;20922;-82
2024/04/07 08:51:18;;;;;;;2.63;1.25;;;;;;;20.04;100.00;97594.31;5011966;28;20430;-79
2024/04/07 08:53:45;;;;;;;2.55;0.95;;;;;;;20.02;100.00;97594.59;5016823;28;20410;-83
2024/04/07 08:56:13;;;;;;;3.45;1.40;;;;;;;19.96;100.00;97595.03;5009145;28;20402;-83
2024/04/07 08:58:40;;;;;;;6.50;1.98;;;;;;;19.96;100.00;97589.66;5009855;28;21561;-81
2024/04/07 09:01:10;;;;;;;2.53;1.10;;;;;;;20.06;100.00;97590.22;5004337;28;20409;-83
2024/04/07 09:03:37;;;;;;;2.80;1.00;;;;;;;20.21;100.00;97583.66;5009353;28;20403;-82
2024/04/07 09:06:04;;;;;;;2.88;1.20;;;;;;;20.34;100.00;97596.25;5012079;28;20472;-82
2024/04/07 09:08:32;;;;;;;2.85;0.98;;;;;;;20.58;100.00;97597.78;5013609;28;20398;-82
2024/04/07 09:10:58;;;;;;;3.55;1.30;;;;;;;20.81;100.00;97594.72;5010353;28;20429;-82
2024/04/07 09:13:24;;;;;;;6.30;1.08;;;;;;;21.22;100.00;97602.44;5008946;28;20907;-82
2024/04/07 09:15:51;;;;;;;6.53;1.30;;;;;;;21.61;100.00;97603.44;5010957;28;20409;-81
2024/04/07 09:18:20;;;;;;;5.20;1.40;;;;;;;21.91;100.00;97605.16;5009202;28;20414;-79
2024/04/07 09:20:46;;;;;;;5.45;1.20;;;;;;;21.92;100.00;97595.97;5006906;28;20918;-80
2024/04/07 09:23:13;;;;;;;3.70;1.10;;;;;;;21.87;100.00;97603.44;5003565;28;20426;-80
2024/04/07 09:25:40;;;;;;;5.20;1.30;;;;;;;21.85;100.00;97597.56;5004077;28;20431;-81
2024/04/07 09:28:09;;;;;;;4.90;2.03;;;;;;;21.99;100.00;97598.19;5005650;28;20926;-80
2024/04/07 09:30:35;;;;;;;4.13;1.10;;;;;;;22.11;100.00;97602.94;5004027;28;20776;-78
2024/04/07 09:33:01;;;;;;;3.55;1.20;;;;;;;22.19;100.00;97600.22;5001585;28;20410;-82
2024/04/07 09:35:28;;;;;;;3.03;1.30;;;;;;;22.19;100.00;97604.81;5003476;28;20398;-80
2024/04/07 09:37:54;;;;;;;3.55;1.10;;;;;;;22.26;100.00;97603.22;5007580;28;20441;-81
2024/04/07 09:40:20;;;;;;;4.43;1.30;;;;;;;22.27;100.00;97593.22;5008355;28;20425;-79
2024/04/07 09:42:49;;;;;;;9.60;2.00;;;;;;;22.22;100.00;97591.50;5004562;28;20402;-82
2024/04/07 09:45:16;;;;;;;3.75;1.00;;;;;;;22.22;100.00;97594.19;5004228;28;20892;-80
2024/04/07 09:47:47;;;;;;;6.60;1.52;;;;;;;22.11;100.00;97595.63;4999801;28;20427;-82
2024/04/07 09:50:27;;;;;;;3.95;1.00;;;;;;;22.07;100.00;97610.09;4996563;28;20426;-81
2024/04/07 09:52:59;;;;;;;2.25;1.00;;;;;;;22.15;100.00;97609.28;4998440;28;20406;-83
2024/04/07 09:55:27;;;;;;;6.57;1.60;;;;;;;22.45;100.00;97588.56;4996150;28;20466;-81
2024/04/07 09:57:55;;;;;;;9.07;1.83;;;;;;;22.55;100.00;97590.94;4989451;28;20775;-81
2024/04/07 10:00:22;;;;;;;4.10;1.05;;;;;;;22.64;100.00;97591.66;4999983;28;20415;-82
2024/04/07 10:02:50;;;;;;;4.60;1.77;;;;;;;22.91;100.00;97598.56;4991170;28;20408;-83
2024/04/07 10:05:16;;;;;;;5.50;1.20;;;;;;;23.10;100.00;97599.72;5011716;28;20401;-78
2024/04/07 10:07:43;;;;;;;4.53;1.10;;;;;;;23.58;100.00;97601.19;5004175;28;20414;-79
2024/04/07 10:10:10;;;;;;;2.28;1.08;;;;;;;23.95;100.00;97599.44;5004155;28;20484;-79
2024/04/07 10:12:36;;;;;;;5.10;1.50;;;;;;;24.68;100.00;97605.03;4999191;28;20425;-80
2024/04/07 10:15:04;;;;;;;5.00;1.57;;;;;;;25.02;100.00;97596.50;4989784;28;20414;-81
2024/04/07 10:17:30;;;;;;;2.93;1.03;;;;;;;24.96;100.00;97603.25;4999446;28;20411;-81
2024/04/07 10:19:58;;;;;;;4.97;1.60;;;;;;;25.14;100.00;97600.31;4993370;28;20712;-82
2024/04/07 10:22:26;;;;;;;4.90;1.30;;;;;;;25.49;100.00;97593.25;5013436;28;20963;-81
2024/04/07 10:24:55;;;;;;;4.18;1.25;;;;;;;25.67;100.00;97591.09;4995654;28;20415;-80
2024/04/07 10:27:23;;;;;;;3.88;1.25;;;;;;;26.32;100.00;97587.06;4990880;28;20402;-80
2024/04/07 10:29:54;;;;;;;2.70;1.00;;;;;;;26.64;100.00;97584.38;4996235;28;20407;-81
2024/04/07 10:32:26;;;;;;;5.50;1.17;;;;;;;27.46;100.00;97577.00;4993471;28;20929;-80
2024/04/07 10:34:59;;;;;;;6.63;1.40;;;;;;;27.87;100.00;97567.38;4997054;28;20774;-81
2024/04/07 10:37:26;;;;;;;4.05;1.00;;;;;;;28.20;100.00;97568.78;4993108;28;20401;-79
2024/04/07 10:39:54;;;;;;;4.33;1.00;;;;;;;28.54;100.00;97564.31;4994343;28;20949;-81
2024/04/07 10:42:21;;;;;;;5.55;1.70;;;;;;;28.86;100.00;97558.28;4997526;28;20695;-81
2024/04/07 10:44:47;;;;;;;7.47;1.73;;;;;;;28.71;94.17;97553.72;4990038;28;20439;-83
2024/04/07 10:47:14;;;;;;;3.13;1.10;;;;;;;28.61;100.00;97548.88;4997817;28;20434;-80
2024/04/07 10:49:43;;;;;;;2.60;1.05;;;;;;;28.52;100.00;97551.06;5000560;28;20489;-80
2024/04/07 10:52:13;;;;;;;2.60;1.02;;;;;;;28.45;100.00;97550.94;4996526;28;20450;-79
2024/04/07 10:54:40;;;;;;;3.75;1.17;;;;;;;28.33;100.00;97534.78;4996791;28;20395;-82
2024/04/07 10:57:11;;;;;;;4.80;1.30;;;;;;;28.21;100.00;97543.13;4995423;28;20907;-80
2024/04/07 10:59:37;;;;;;;2.97;0.98;;;;;;;28.15;100.00;97539.09;4996947;28;20422;-80
2024/04/07 11:02:06;;;;;;;2.47;1.00;;;;;;;28.17;100.00;97534.91;4995622;28;20422;-80
2024/04/07 11:04:33;;;;;;;3.00;1.00;;;;;;;28.47;100.00;97535.81;4997729;28;20410;-77
2024/04/07 11:07:02;;;;;;;2.55;0.93;;;;;;;28.71;100.00;97529.19;4998488;28;20771;-79
2024/04/07 11:09:28;;;;;;;2.22;0.90;;;;;;;28.90;100.00;97527.53;5001783;28;20407;-79
2024/04/07 11:11:55;;;;;;;2.95;1.10;;;;;;;29.17;100.00;97529.13;4998046;28;20496;-81
2024/04/07 11:14:24;;;;;;;2.17;0.80;;;;;;;29.50;100.00;97523.72;4986818;28;20402;-77
2024/04/07 11:16:54;;;;;;;2.08;0.80;;;;;;;29.71;100.00;97522.38;4989222;28;20394;-78
2024/04/07 11:19:23;;;;;;;1.87;0.93;;;;;;;29.92;100.00;97517.94;5002411;28;20404;-77
2024/04/07 11:21:50;;;;;;;3.20;0.80;;;;;;;30.14;100.00;97512.75;4993825;28;20792;-77
2024/04/07 11:24:18;;;;;;;1.70;0.97;;;;;;;30.21;100.00;97505.41;4993463;28;20411;-77
2024/04/07 11:26:44;;;;;;;3.03;1.15;;;;;;;30.47;100.00;97498.19;4993868;28;20398;-77